Startpagina
METAR-TAF:

METAR-TAF

Vliegvelden :

Guilin, China

breedte: 25-20N, lengte: 110-18E, hoogte: 166 m

Actueel weer

Dit bericht is 48 minuten geleden gemaakt, om 17:00 UTC
Wind 4 kt uit het zuiden, variërend tussen het zuiden en het zuidwesten
Temperatuur 28°C
Vochtigheid 84%
Druk 1004 hPa
Zicht 10 km of meer
Gebroken wolken op 5000 ft

METAR: ZGKL 181700Z 19002MPS 170V230 9999 BKN050 28/25 Q1004 NOSIG

Tijdstip: 01:48 (17:48 UTC)

Verwachting

Dit bericht is 2 uur en het 37 minuten geleden gemaakt, om 15:11 UTC
Verwachting geldig van 18 om 18 UTC tot 19 om 18 UTC
Wind 6 kt uit het zuiden
Zicht 10 km of meer
Verspreide wolken op 4000 ft

TAF: ZGKL 181511Z 1818/1918 18003MPS 9999 SCT040 TX37/1908Z TN25/1822Z

Waarnemingen en weersverwachtingen van meer dan 4000 vliegvelden (METAR en TAF).

De beschikbare stations zijn de gele en rode punten op de kaart.

Ga met uw muis naar het station om de naam te zien.

Klik dan om waarnemingen en weersverwachtingen te zien.

kaart wijzigen: klik op de groene knoppen met een zwart kruis om in te zoomen, op de groene knop met een streepje om uit te zoomen of op de groene pijlen voor aangrenzende kaarten.


METAR-TAF: